Penn Yan, NY

3:46 PM EDT on August 30, 2014 (GMT -0400)
Penn Yan | Change Station
CLOSE
Current Station
Airport
Location: Penn Yan,
Elevation: 902 ft
Nearby Weather Stations

Elev 902 ft 42.64 °N, 77.05 °W | Updated 53 minutes ago

Partly Cloudy
Partly Cloudy
83 °F
Feels Like 85 °F
N
14
Wind Variable Wind from South

Today
High -- | Low -- °F
--% Chance of Precip.
Yesterday
High -- | Low -- °F
Precip. -- in
6:30 AM 7:45 PM
Waxing Crescent, 24% visible
Pressure 30.05 in
Visibility 10.0 miles
Clouds Few 9500 ft
Heat Index 85 °F
Dew Point 65 °F
Humidity 54%
Rainfall 0.00 in
Snow Depth Not available.
UV 7 out of 12
Pollen 9.60 out of 12
PM2.5 Good
Flu Activity Not available.
METAR KPEO 301853Z AUTO 17012KT 10SM FEW095 28/18 A3007 RMK AO2 SLP174 T02830183

More Conditions Fewer Conditions

Pressure 30.05 in
Visibility 10.0 miles
Clouds Few 9500 ft
Heat Index 85 °F
Dew Point 65 °F
Humidity 54%
Rainfall 0.00 in
Snow Depth Not available.
UV 7 out of 12
Pollen 9.60 out of 12
PM2.5 Good
Flu Activity Not available.
METAR KPEO 301853Z AUTO 17012KT 10SM FEW095 28/18 A3007 RMK AO2 SLP174 T02830183

More Conditions Fewer Conditions

10-Day Weather Forecast

Almanac

Astronomy

Aug. 30, 2014 Rise Set
Actual Time 6:30 AM EDT 7:45 PM EDT
Civil Twilight 6:01 AM EDT 8:15 PM EDT
Nautical Twilight 5:26 AM EDT 8:49 PM EDT
Astronomical Twilight 4:49 AM EDT 9:26 PM EDT
Moon 11:23 AM EDT 10:11 PM EDT
Length of Visible Light 14h 13m
Length of Day
13h 15m
Tomorrow will be 2m 46s shorter.
Waxing Crescent, 24% of the Moon is Illuminated
Today
Waxing Crescent
Sep 2
First Quarter
Sep 8
Full
Sep 15
Last Quarter
Sep 24
New

Today's Extremes

State Highs State Lows

Community

WunderPhotos

Upload Photos

1,748,614 photos uploaded!

WunderBlogs® & News

Nearby

Air Quality

  Air Quality AQ Index Pollutant
Yesterday Good
OZONE
Yesterday Good
PM2.5
Current Good
PM2.5
Saturday Good
OZONE
Saturday Good
PM2.5
Sunday Good
PM2.5
Sunday Good
OZONE
Monday Moderate
OZONE
Monday Moderate
PM2.5
Tuesday Moderate
PM2.5
Tuesday Good
OZONE

Snow Depth

Station Depth Elevation
No new snow has been reported.

Earthquake Activity

City Distance Mag. Time & Date
No recent earthquake activity has been reported nearby.
Minimum magnitude displayed is 2.5.

Coastal Water Temperatures

Place Temperature
No Stations Reporting

Nearby Weather Stations